createdAt,value
2022-08-03T00:00:21.701Z,19.96
2022-08-03T00:03:00.980Z,20.01
2022-08-03T00:06:04.530Z,20.13
2022-08-03T00:09:05.569Z,19.98
2022-08-03T00:11:46.394Z,19.99
2022-08-03T00:14:24.676Z,20.18
2022-08-03T00:16:54.676Z,20.05
2022-08-03T00:19:22.519Z,19.96
2022-08-03T00:21:50.022Z,20.12
2022-08-03T00:24:22.456Z,20.07
2022-08-03T00:26:50.021Z,20.03
2022-08-03T00:29:22.216Z,19.99
2022-08-03T00:32:00.181Z,19.94
2022-08-03T00:34:57.179Z,20.03
2022-08-03T00:37:22.504Z,20.09
2022-08-03T00:40:15.449Z,20.05
2022-08-03T00:42:51.702Z,20.17
2022-08-03T00:45:24.939Z,20.06
2022-08-03T00:47:55.694Z,19.91
2022-08-03T00:50:25.401Z,20.01
2022-08-03T00:52:54.752Z,19.89
2022-08-03T00:55:26.561Z,19.99
2022-08-03T00:57:54.453Z,19.93
2022-08-03T01:00:24.558Z,19.89
2022-08-03T01:02:52.849Z,19.96
2022-08-03T01:05:24.069Z,19.87
2022-08-03T01:08:23.125Z,20.02
2022-08-03T01:11:16.740Z,19.96
2022-08-03T01:14:18.921Z,19.95
2022-08-03T01:17:10.313Z,19.74
2022-08-03T01:19:47.179Z,19.90
2022-08-03T01:22:41.498Z,19.87
2022-08-03T01:25:41.623Z,19.84
2022-08-03T01:28:46.837Z,19.83
2022-08-03T01:31:21.253Z,19.76
2022-08-03T01:34:03.251Z,19.72
2022-08-03T01:36:38.755Z,19.66
2022-08-03T01:39:12.014Z,19.68
2022-08-03T01:41:51.269Z,19.66
2022-08-03T01:44:29.688Z,19.54
2022-08-03T01:47:01.418Z,19.60
2022-08-03T01:49:34.162Z,19.69
2022-08-03T01:52:09.989Z,19.65
2022-08-03T01:54:45.626Z,19.64
2022-08-03T01:57:14.597Z,19.66
2022-08-03T01:59:47.352Z,19.61
2022-08-03T02:02:32.719Z,19.65
2022-08-03T02:05:10.750Z,19.70
2022-08-03T02:07:42.339Z,19.80
2022-08-03T02:10:12.414Z,19.83
2022-08-03T02:12:45.876Z,19.94
2022-08-03T02:15:16.859Z,19.92
2022-08-03T02:17:55.182Z,19.95
2022-08-03T02:20:22.728Z,19.97
2022-08-03T02:23:02.407Z,19.88
2022-08-03T02:25:35.800Z,19.95
2022-08-03T02:28:10.943Z,20.01
2022-08-03T02:30:41.503Z,19.93
2022-08-03T02:33:13.789Z,19.93
2022-08-03T02:36:11.947Z,20.18
2022-08-03T02:38:55.901Z,20.09
2022-08-03T02:41:31.131Z,20.28
2022-08-03T02:44:11.165Z,20.16
2022-08-03T02:46:43.378Z,20.24
2022-08-03T02:49:40.761Z,20.22
2022-08-03T02:52:03.199Z,20.23
2022-08-03T02:54:32.394Z,20.39
2022-08-03T02:57:02.858Z,20.29
2022-08-03T02:59:32.520Z,20.55
2022-08-03T03:02:02.095Z,20.50
2022-08-03T03:04:33.569Z,20.47
2022-08-03T03:07:04.429Z,20.55
2022-08-03T03:09:40.530Z,20.42
2022-08-03T03:12:16.781Z,20.49
2022-08-03T03:14:47.358Z,20.48
2022-08-03T03:17:17.451Z,20.52
2022-08-03T03:19:45.943Z,20.55
2022-08-03T03:22:15.569Z,20.70
2022-08-03T03:24:46.310Z,20.81
2022-08-03T03:27:16.922Z,20.76
2022-08-03T03:29:44.927Z,20.82
2022-08-03T03:32:12.882Z,20.75
2022-08-03T03:34:40.700Z,20.84
2022-08-03T03:37:11.648Z,20.72
2022-08-03T03:39:39.369Z,20.87
2022-08-03T03:42:09.697Z,21.02
2022-08-03T03:44:37.522Z,21.05
2022-08-03T03:47:05.593Z,21.18
2022-08-03T03:49:33.049Z,20.94
2022-08-03T03:52:00.536Z,21.10
2022-08-03T03:54:40.069Z,21.27
2022-08-03T03:57:07.374Z,21.16
2022-08-03T03:59:44.072Z,21.27
2022-08-03T04:02:12.428Z,21.28
2022-08-03T04:06:02.943Z,21.29
2022-08-03T04:10:14.751Z,21.55
2022-08-03T04:16:32.821Z,21.49
2022-08-03T04:22:52.950Z,21.80
2022-08-03T04:26:12.387Z,21.87
2022-08-03T04:29:25.008Z,21.96
2022-08-03T04:36:15.242Z,22.20
2022-08-03T04:44:21.025Z,22.49
2022-08-03T04:47:22.561Z,22.66
2022-08-03T04:57:54.800Z,22.96
2022-08-03T05:09:50.263Z,23.45
2022-08-03T05:12:34.022Z,23.75
2022-08-03T05:23:10.826Z,24.68
2022-08-03T05:59:37.048Z,32.18
2022-08-03T06:11:11.956Z,33.40
2022-08-03T06:14:35.236Z,33.90
2022-08-03T06:20:57.082Z,34.30
2022-08-03T06:23:55.699Z,34.91
2022-08-03T06:26:49.026Z,35.37
2022-08-03T06:29:50.577Z,35.91
2022-08-03T06:34:35.442Z,35.75
2022-08-03T06:46:10.690Z,35.63
2022-08-03T21:43:30.947Z,23.41
2022-08-03T22:44:12.268Z,22.61
2022-08-03T22:47:53.239Z,22.69
2022-08-03T22:50:57.478Z,22.49
2022-08-03T22:54:00.756Z,22.44
2022-08-03T22:56:57.061Z,22.34
2022-08-03T22:59:41.232Z,22.28
2022-08-03T23:02:26.700Z,22.20
2022-08-03T23:05:05.208Z,22.30
2022-08-03T23:07:43.384Z,22.08
2022-08-03T23:10:25.555Z,22.20
2022-08-03T23:12:58.092Z,22.09
2022-08-03T23:16:03.812Z,21.96
2022-08-03T23:18:48.220Z,21.92
2022-08-03T23:21:53.960Z,21.97
2022-08-03T23:24:29.325Z,21.81
2022-08-03T23:27:11.717Z,21.74
2022-08-03T23:29:46.649Z,21.72
2022-08-03T23:32:14.807Z,21.62
2022-08-03T23:35:07.762Z,21.61
2022-08-03T23:38:04.297Z,21.61
2022-08-03T23:40:42.124Z,21.57
2022-08-03T23:43:16.745Z,21.41
2022-08-03T23:46:12.961Z,21.43
2022-08-03T23:48:51.041Z,21.39
2022-08-03T23:51:55.338Z,21.31
2022-08-03T23:54:45.711Z,21.35
2022-08-03T23:58:02.991Z,21.30
